Time;durP1;ratioP1;P1;durP2;ratioP2;P2;SDS_P1;SDS_P2;PMS_P1;PMS_P2;Temp;Humidity;BMP_temperature;BMP_pressure;BME280_temperature;BME280_humidity;BME280_pressure;Samples;Min_cycle;Max_cycle;Signal;HPM_P1;HPM_P2
2020/12/03 00:00:30;;;;;;;7.68;4.40;;;16.30;60.20;;;;;;5027851;28;20065;-65
2020/12/03 00:02:57;;;;;;;7.65;4.25;;;16.20;59.80;;;;;;5019113;28;20096;-67
2020/12/03 00:05:23;;;;;;;8.02;4.53;;;16.30;59.90;;;;;;5021170;28;20021;-66
2020/12/03 00:07:49;;;;;;;7.60;4.32;;;16.20;59.60;;;;;;5027494;28;20034;-65
2020/12/03 00:10:15;;;;;;;6.75;3.97;;;16.20;59.50;;;;;;5028843;28;20036;-66
2020/12/03 00:12:40;;;;;;;6.53;3.90;;;16.20;59.70;;;;;;5028865;28;20029;-66
2020/12/03 00:15:06;;;;;;;7.78;4.25;;;16.20;59.70;;;;;;5013999;28;20437;-68
2020/12/03 00:17:31;;;;;;;7.53;4.22;;;16.20;59.80;;;;;;5015557;28;20068;-68
2020/12/03 00:20:12;;;;;;;8.13;4.50;;;16.20;59.80;;;;;;5010701;28;20391;-66
2020/12/03 00:22:38;;;;;;;7.55;4.40;;;16.20;59.60;;;;;;5026657;28;20029;-66
2020/12/03 00:25:03;;;;;;;8.07;4.15;;;16.20;59.60;;;;;;5030315;28;20041;-67
2020/12/03 00:27:29;;;;;;;8.05;4.05;;;16.20;59.50;;;;;;5025143;28;20064;-67
2020/12/03 00:29:54;;;;;;;7.10;4.28;;;16.20;59.40;;;;;;5034306;28;20363;-67
2020/12/03 00:32:20;;;;;;;7.13;4.20;;;16.20;59.50;;;;;;5017423;28;20036;-67
2020/12/03 00:34:45;;;;;;;7.43;4.13;;;16.20;59.70;;;;;;5015489;28;20034;-66
2020/12/03 00:37:11;;;;;;;6.68;3.95;;;16.10;59.60;;;;;;5026634;28;20490;-67
2020/12/03 00:39:36;;;;;;;8.10;4.72;;;16.10;59.40;;;;;;5032832;28;20026;-66
2020/12/03 00:42:02;;;;;;;7.43;4.45;;;16.10;59.60;;;;;;5033793;28;20060;-67
2020/12/03 00:44:27;;;;;;;6.47;4.10;;;16.10;59.40;;;;;;5034106;28;20414;-67
2020/12/03 00:46:53;;;;;;;7.53;4.30;;;16.00;59.20;;;;;;5033405;28;20030;-66
2020/12/03 00:49:18;;;;;;;7.95;4.70;;;16.00;59.40;;;;;;5024203;28;20048;-66
2020/12/03 00:51:48;;;;;;;7.55;4.30;;;16.00;59.40;;;;;;5026063;28;20112;-67
2020/12/03 00:54:13;;;;;;;7.35;4.20;;;16.00;59.20;;;;;;5031917;28;20033;-66
2020/12/03 00:56:39;;;;;;;7.95;4.32;;;16.00;59.30;;;;;;5022878;28;20033;-66
2020/12/03 00:59:05;;;;;;;7.38;4.65;;;16.00;58.90;;;;;;5014236;28;20030;-68
2020/12/03 01:01:33;;;;;;;6.70;4.18;;;16.10;59.40;;;;;;5023720;28;20033;-66
2020/12/03 01:03:58;;;;;;;9.40;4.63;;;16.00;59.30;;;;;;5032118;28;20071;-66
2020/12/03 01:06:24;;;;;;;7.30;4.43;;;16.00;59.50;;;;;;5023936;28;20434;-66
2020/12/03 01:08:50;;;;;;;6.20;3.78;;;16.00;59.40;;;;;;5016084;28;20372;-67
2020/12/03 01:11:19;;;;;;;7.45;4.15;;;16.00;59.70;;;;;;5031564;28;20067;-68
2020/12/03 01:13:44;;;;;;;8.15;4.18;;;16.10;59.50;;;;;;5033829;28;20033;-67
2020/12/03 01:16:14;;;;;;;7.03;4.18;;;16.00;59.50;;;;;;5020757;28;20022;-66
2020/12/03 01:18:40;;;;;;;6.60;4.20;;;16.00;59.50;;;;;;5012064;28;20022;-66
2020/12/03 01:21:05;;;;;;;7.70;4.22;;;16.00;59.40;;;;;;5019152;28;20505;-66
2020/12/03 01:23:31;;;;;;;7.38;3.92;;;15.90;59.50;;;;;;5023041;28;20433;-67
2020/12/03 01:25:56;;;;;;;6.53;4.05;;;16.00;59.20;;;;;;5028661;28;20108;-68
2020/12/03 01:28:22;;;;;;;6.88;4.43;;;15.90;59.40;;;;;;5023372;28;20025;-66
2020/12/03 01:30:47;;;;;;;7.32;4.47;;;15.90;59.50;;;;;;5022731;28;20049;-68
2020/12/03 01:33:13;;;;;;;7.10;4.22;;;15.90;59.20;;;;;;5021082;28;20055;-66
2020/12/03 01:35:38;;;;;;;7.57;4.05;;;15.90;59.30;;;;;;5012356;28;20040;-67
2020/12/03 01:38:04;;;;;;;7.32;4.35;;;15.90;59.40;;;;;;5011377;28;20030;-66
2020/12/03 01:40:29;;;;;;;6.60;4.18;;;15.90;59.50;;;;;;5011399;28;20387;-65
2020/12/03 01:42:55;;;;;;;7.30;3.97;;;15.90;59.40;;;;;;5012895;28;20033;-66
2020/12/03 01:45:46;;;;;;;6.97;4.43;;;15.90;59.20;;;;;;5026558;28;20029;-66
2020/12/03 01:48:28;;;;;;;7.70;4.20;;;15.90;59.30;;;;;;5032956;28;20014;-67
2020/12/03 01:50:54;;;;;;;7.35;4.25;;;15.90;59.10;;;;;;5032702;28;20033;-66
2020/12/03 01:53:21;;;;;;;6.85;3.90;;;15.80;59.10;;;;;;5032900;28;20090;-67
2020/12/03 01:55:48;;;;;;;8.15;4.45;;;15.80;59.40;;;;;;5031640;28;20112;-68
2020/12/03 01:58:42;;;;;;;7.80;4.28;;;15.80;59.70;;;;;;5025678;28;20030;-66
2020/12/03 02:01:09;;;;;;;6.55;4.00;;;15.90;59.20;;;;;;5018998;28;20037;-67
2020/12/03 02:03:42;;;;;;;6.80;4.20;;;15.90;59.30;;;;;;5031543;28;20017;-66
2020/12/03 02:06:08;;;;;;;6.95;3.97;;;15.90;59.50;;;;;;5014486;28;20495;-66
2020/12/03 02:08:33;;;;;;;7.13;4.18;;;15.90;59.50;;;;;;5012911;28;20040;-68
2020/12/03 02:10:59;;;;;;;10.27;4.18;;;15.90;59.30;;;;;;5018060;28;20033;-68
2020/12/03 02:13:24;;;;;;;8.82;4.18;;;15.80;59.30;;;;;;5032468;28;20503;-67
2020/12/03 02:15:50;;;;;;;13.88;4.70;;;15.80;59.20;;;;;;5030667;28;20041;-66
2020/12/03 02:18:15;;;;;;;6.85;4.18;;;15.90;59.10;;;;;;5024840;28;20180;-67
2020/12/03 02:20:41;;;;;;;8.63;4.25;;;15.80;59.20;;;;;;5025980;28;20025;-66
2020/12/03 02:23:59;;;;;;;7.90;4.00;;;15.80;59.40;;;;;;5012308;28;20025;-66
2020/12/03 02:26:25;;;;;;;7.78;4.05;;;15.80;59.40;;;;;;5029710;28;20116;-67
2020/12/03 02:28:50;;;;;;;7.43;4.03;;;15.70;59.20;;;;;;5030987;28;20120;-68
2020/12/03 02:31:17;;;;;;;7.65;4.25;;;15.70;59.30;;;;;;5017244;28;20032;-66
2020/12/03 02:33:43;;;;;;;7.90;3.90;;;15.70;59.20;;;;;;5012439;28;20097;-66
2020/12/03 02:36:31;;;;;;;6.68;3.92;;;15.70;59.10;;;;;;5020056;28;20474;-67
2020/12/03 02:39:15;;;;;;;7.90;4.32;;;15.70;59.20;;;;;;5015829;28;20034;-66
2020/12/03 02:41:41;;;;;;;8.43;4.10;;;15.70;59.20;;;;;;5023894;28;20352;-66
2020/12/03 02:44:32;;;;;;;8.18;4.40;;;15.70;59.30;;;;;;5012252;28;20033;-66
2020/12/03 02:46:58;;;;;;;7.43;3.85;;;15.60;58.80;;;;;;5015178;28;20038;-68
2020/12/03 02:49:23;;;;;;;8.05;4.22;;;15.60;59.20;;;;;;5030226;28;20036;-66
2020/12/03 02:54:56;;;;;;;6.80;4.10;;;15.60;59.10;;;;;;5012356;28;20057;-67
2020/12/03 02:57:22;;;;;;;7.07;4.15;;;15.60;58.90;;;;;;5011807;28;20026;-67
2020/12/03 03:02:32;;;;;;;8.30;4.53;;;15.60;58.80;;;;;;5080779;22;20187;-69
2020/12/03 03:04:57;;;;;;;7.45;4.18;;;15.60;58.60;;;;;;5013425;28;20262;-69
2020/12/03 03:07:23;;;;;;;6.85;4.10;;;15.60;58.70;;;;;;5031048;28;20449;-70
2020/12/03 03:09:48;;;;;;;7.75;4.43;;;15.60;59.00;;;;;;5030869;28;20083;-70
2020/12/03 03:12:14;;;;;;;8.02;3.83;;;15.60;58.80;;;;;;5030265;28;20109;-70
2020/12/03 03:14:40;;;;;;;8.20;4.05;;;15.50;58.70;;;;;;5018500;28;20121;-70
2020/12/03 03:17:05;;;;;;;7.68;4.20;;;15.50;58.70;;;;;;5011851;28;20071;-69
2020/12/03 03:19:31;;;;;;;6.78;3.78;;;15.50;58.80;;;;;;5028667;28;20040;-69
2020/12/03 03:21:56;;;;;;;7.47;4.30;;;15.50;58.70;;;;;;4992990;28;20519;-69
2020/12/03 03:25:10;;;;;;;7.30;4.05;;;15.50;58.60;;;;;;5011246;28;20029;-69
2020/12/03 03:27:36;;;;;;;9.60;4.30;;;15.50;58.90;;;;;;4994613;28;20404;-69
2020/12/03 03:30:04;;;;;;;6.15;3.95;;;15.50;58.70;;;;;;5029205;28;20033;-70
2020/12/03 03:32:30;;;;;;;7.65;4.10;;;15.50;59.20;;;;;;5027332;28;20677;-69
2020/12/03 03:35:16;;;;;;;7.40;4.13;;;15.50;58.50;;;;;;5018316;28;20033;-69
2020/12/03 03:37:42;;;;;;;7.00;4.03;;;15.40;58.50;;;;;;5001229;28;20046;-69
2020/12/03 03:40:08;;;;;;;7.43;4.35;;;15.50;58.60;;;;;;5008518;28;20808;-69
2020/12/03 03:42:34;;;;;;;6.90;4.30;;;15.50;58.50;;;;;;5008526;28;20025;-69
2020/12/03 03:44:59;;;;;;;7.75;4.05;;;15.40;58.30;;;;;;5010204;28;20017;-67
2020/12/03 03:47:25;;;;;;;7.60;4.30;;;15.40;58.50;;;;;;5026600;28;20069;-70
2020/12/03 03:49:50;;;;;;;7.15;4.20;;;15.40;58.40;;;;;;5023766;28;20034;-71
2020/12/03 03:52:16;;;;;;;7.07;4.15;;;15.40;58.50;;;;;;4992528;28;20029;-69
2020/12/03 03:54:41;;;;;;;6.53;4.03;;;15.50;58.50;;;;;;5028148;28;20034;-69
2020/12/03 03:57:07;;;;;;;8.23;4.10;;;15.40;58.70;;;;;;4993241;28;20041;-70
2020/12/03 03:59:33;;;;;;;8.43;4.45;;;15.50;58.80;;;;;;4993684;28;20049;-69
2020/12/03 04:01:59;;;;;;;10.05;4.05;;;15.40;58.90;;;;;;4996924;28;20054;-70
2020/12/03 04:04:24;;;;;;;6.88;3.90;;;15.50;59.00;;;;;;5010581;28;20053;-70
2020/12/03 04:06:49;;;;;;;7.32;4.10;;;15.50;58.80;;;;;;5011994;28;20034;-70
2020/12/03 04:09:15;;;;;;;7.45;3.83;;;15.50;58.90;;;;;;5008090;28;20026;-70
2020/12/03 04:11:43;;;;;;;7.18;4.28;;;15.50;58.80;;;;;;5029571;28;20048;-71
2020/12/03 04:14:08;;;;;;;6.40;3.88;;;15.50;59.00;;;;;;5003215;28;20034;-70
2020/12/03 04:16:34;;;;;;;6.30;3.75;;;15.40;58.90;;;;;;5015038;28;20510;-70
2020/12/03 04:18:59;;;;;;;6.80;4.03;;;15.40;58.80;;;;;;5010510;28;20106;-70
2020/12/03 04:21:25;;;;;;;8.32;3.85;;;15.50;58.90;;;;;;5010680;28;20034;-70
2020/12/03 04:23:50;;;;;;;7.03;4.22;;;15.40;59.00;;;;;;5022082;28;20146;-70
2020/12/03 04:26:16;;;;;;;7.85;4.00;;;15.40;58.50;;;;;;5019509;28;20049;-69
2020/12/03 04:28:41;;;;;;;7.90;4.18;;;15.40;58.60;;;;;;5012209;28;20053;-71
2020/12/03 04:31:08;;;;;;;8.75;4.35;;;15.40;58.50;;;;;;5013783;28;20410;-70
2020/12/03 04:33:34;;;;;;;6.78;4.10;;;15.30;58.50;;;;;;5030039;28;20168;-69
2020/12/03 04:35:59;;;;;;;8.02;4.25;;;15.30;58.60;;;;;;5030179;28;20449;-70
2020/12/03 04:38:25;;;;;;;7.47;4.30;;;15.30;58.60;;;;;;5005160;28;20026;-69
2020/12/03 04:40:51;;;;;;;7.43;4.38;;;15.30;58.60;;;;;;5009626;28;20041;-70
2020/12/03 04:43:35;;;;;;;7.32;4.03;;;15.30;58.50;;;;;;4997267;28;20125;-70
2020/12/03 04:46:06;;;;;;;7.45;4.63;;;15.30;58.40;;;;;;5024090;28;20121;-70
2020/12/03 04:48:49;;;;;;;9.13;4.15;;;15.30;58.20;;;;;;5016677;28;20441;-70
2020/12/03 04:51:52;;;;;;;6.93;4.28;;;15.30;58.20;;;;;;5021817;28;20074;-70
2020/12/03 04:54:52;;;;;;;7.70;4.57;;;15.30;58.30;;;;;;5015172;28;20549;-71
2020/12/03 04:57:36;;;;;;;7.40;4.30;;;15.30;58.10;;;;;;4988526;28;20040;-70
2020/12/03 05:00:16;;;;;;;8.23;4.05;;;15.30;58.40;;;;;;5004556;28;20054;-69
2020/12/03 05:03:10;;;;;;;8.20;4.80;;;15.30;58.40;;;;;;5000532;28;20064;-71
2020/12/03 05:05:43;;;;;;;8.57;4.93;;;15.30;57.90;;;;;;5006317;28;20030;-70
2020/12/03 05:08:16;;;;;;;10.68;5.25;;;15.30;58.00;;;;;;4997390;28;20697;-70
2020/12/03 05:10:47;;;;;;;8.40;4.40;;;15.40;58.10;;;;;;5003084;28;20064;-70
2020/12/03 05:13:29;;;;;;;12.75;5.32;;;15.30;58.20;;;;;;5004169;28;20522;-69
2020/12/03 05:16:10;;;;;;;9.48;4.32;;;15.40;58.30;;;;;;4983927;28;20459;-70
2020/12/03 05:18:42;;;;;;;7.45;3.90;;;15.40;58.60;;;;;;4993951;28;20057;-69
2020/12/03 05:21:14;;;;;;;7.80;4.20;;;15.40;58.60;;;;;;5011439;28;20133;-69
2020/12/03 05:23:40;;;;;;;8.38;5.05;;;15.50;58.50;;;;;;4993698;28;20032;-68
2020/12/03 05:26:17;;;;;;;13.05;4.88;;;15.50;58.10;;;;;;5025427;28;20030;-70
2020/12/03 05:28:52;;;;;;;11.13;5.13;;;15.50;58.40;;;;;;5014930;28;20025;-69
2020/12/03 05:31:34;;;;;;;8.45;4.30;;;15.50;58.00;;;;;;5024637;28;20524;-68
2020/12/03 05:34:21;;;;;;;7.60;4.70;;;15.70;58.00;;;;;;5018389;28;20048;-69
2020/12/03 05:36:55;;;;;;;10.05;4.68;;;15.60;58.20;;;;;;4995681;28;20037;-69
2020/12/03 05:39:35;;;;;;;10.07;4.70;;;15.70;58.20;;;;;;5007373;28;20037;-69
2020/12/03 05:42:05;;;;;;;10.95;4.75;;;15.70;58.00;;;;;;5026605;28;20036;-69
2020/12/03 05:44:48;;;;;;;10.30;4.32;;;15.80;58.10;;;;;;5013906;28;20106;-69
2020/12/03 05:47:29;;;;;;;11.23;4.63;;;15.80;58.00;;;;;;5006650;28;20030;-69
2020/12/03 05:49:58;;;;;;;13.50;4.45;;;15.90;57.30;;;;;;5008932;28;20065;-69
2020/12/03 05:52:26;;;;;;;13.43;4.80;;;15.90;58.00;;;;;;5007267;28;20121;-69
2020/12/03 05:55:24;;;;;;;11.50;4.70;;;15.90;58.60;;;;;;4990061;28;20026;-68
2020/12/03 05:57:49;;;;;;;12.68;4.78;;;15.90;59.20;;;;;;5012032;28;20425;-68
2020/12/03 06:00:26;;;;;;;14.35;5.00;;;15.90;60.00;;;;;;5000506;28;20091;-69
2020/12/03 06:03:03;;;;;;;12.20;4.50;;;16.00;59.80;;;;;;4998715;28;20041;-68
2020/12/03 06:05:34;;;;;;;10.85;4.25;;;16.00;59.60;;;;;;4986129;28;20031;-69
2020/12/03 06:08:26;;;;;;;10.73;4.30;;;16.00;59.50;;;;;;4998497;28;20030;-69
2020/12/03 06:11:33;;;;;;;13.15;5.32;;;16.00;60.70;;;;;;5010680;28;20076;-69
2020/12/03 06:14:25;;;;;;;15.13;4.88;;;15.90;60.00;;;;;;5005557;28;20112;-69
2020/12/03 06:17:28;;;;;;;13.43;4.82;;;16.00;60.40;;;;;;5009779;28;20038;-69
2020/12/03 06:20:19;;;;;;;15.93;5.20;;;16.00;60.80;;;;;;5010401;28;20094;-69
2020/12/03 06:23:03;;;;;;;10.23;5.07;;;15.80;60.20;;;;;;5002085;28;20026;-66
2020/12/03 06:25:46;;;;;;;17.23;5.85;;;15.40;60.40;;;;;;5011026;28;20025;-69
2020/12/03 06:32:18;;;;;;;12.93;5.47;;;15.20;62.90;;;;;;5005304;28;20390;-66
2020/12/03 06:34:54;;;;;;;11.45;4.90;;;15.20;63.30;;;;;;5008023;28;20044;-65
2020/12/03 06:37:30;;;;;;;12.10;4.30;;;15.20;62.30;;;;;;5002240;28;20022;-64
2020/12/03 06:40:01;;;;;;;11.27;4.88;;;15.20;61.70;;;;;;5001242;28;20026;-65
2020/12/03 06:42:55;;;;;;;10.70;4.95;;;15.20;62.20;;;;;;4979321;28;20097;-66
2020/12/03 06:46:23;;;;;;;11.43;4.82;;;15.20;61.80;;;;;;4983869;28;20380;-66
2020/12/03 06:48:55;;;;;;;9.85;4.30;;;15.20;62.00;;;;;;4967135;28;20026;-65
2020/12/03 06:51:36;;;;;;;10.13;4.28;;;15.20;61.20;;;;;;5007300;28;20087;-64
2020/12/03 06:54:28;;;;;;;10.55;4.68;;;15.20;61.40;;;;;;5004519;28;20021;-64
2020/12/03 06:57:02;;;;;;;8.00;4.10;;;15.20;61.70;;;;;;5005799;28;20034;-64
2020/12/03 06:59:49;;;;;;;11.02;4.18;;;15.20;60.50;;;;;;5005958;28;20072;-67
2020/12/03 07:03:04;;;;;;;8.70;5.15;;;15.20;62.20;;;;;;4987684;28;20049;-66
2020/12/03 07:06:05;;;;;;;9.30;4.15;;;15.20;61.50;;;;;;5005838;28;20037;-64
2020/12/03 07:09:05;;;;;;;7.40;3.70;;;15.30;62.30;;;;;;4987798;28;20033;-65
2020/12/03 07:11:55;;;;;;;8.30;4.43;;;15.30;60.20;;;;;;4987541;28;20109;-64
2020/12/03 07:14:46;;;;;;;6.95;4.00;;;15.30;60.10;;;;;;5005514;28;20042;-65
2020/12/03 07:17:11;;;;;;;16.00;9.25;;;15.30;59.20;;;;;;5005472;28;20021;-65
2020/12/03 07:19:58;;;;;;;28.23;7.20;;;15.30;59.90;;;;;;5005244;28;20102;-65
2020/12/03 07:22:55;;;;;;;9.68;4.50;;;15.40;60.40;;;;;;5004697;28;20037;-65
2020/12/03 07:25:21;;;;;;;8.98;4.70;;;15.30;57.70;;;;;;5000404;28;20302;-65
2020/12/03 07:28:15;;;;;;;9.95;4.07;;;15.20;57.60;;;;;;5005363;28;20038;-65
2020/12/03 07:31:00;;;;;;;7.65;4.25;;;15.10;58.60;;;;;;5004623;28;20021;-65
2020/12/03 07:33:59;;;;;;;8.82;4.60;;;15.00;59.20;;;;;;5005287;28;20021;-65
2020/12/03 07:36:58;;;;;;;9.05;4.18;;;15.00;58.80;;;;;;5005025;28;20546;-66
2020/12/03 07:39:29;;;;;;;9.45;3.90;;;15.00;59.80;;;;;;4969200;28;20034;-66
2020/12/03 07:42:01;;;;;;;11.43;4.20;;;15.00;60.40;;;;;;4985260;28;20076;-65
2020/12/03 07:44:41;;;;;;;8.88;4.07;;;15.00;60.10;;;;;;4985452;28;20188;-65
2020/12/03 07:47:38;;;;;;;9.02;4.30;;;15.00;60.10;;;;;;4988508;28;20021;-65
2020/12/03 07:50:21;;;;;;;7.97;4.10;;;15.10;60.10;;;;;;4986416;28;20598;-65
2020/12/03 07:53:15;;;;;;;7.45;3.80;;;15.00;58.70;;;;;;5004733;28;20369;-65
2020/12/03 07:55:41;;;;;;;7.80;4.13;;;15.00;59.40;;;;;;5004772;28;20181;-65
2020/12/03 07:58:27;;;;;;;10.25;4.00;;;15.00;58.50;;;;;;5004757;28;20060;-65
2020/12/03 08:00:52;;;;;;;7.82;3.40;;;15.10;59.80;;;;;;5003017;28;20026;-66
2020/12/03 08:03:37;;;;;;;7.57;3.28;;;15.10;60.60;;;;;;5004566;28;20065;-65
2020/12/03 08:06:13;;;;;;;6.95;3.30;;;15.20;60.30;;;;;;5004664;28;20130;-66
2020/12/03 08:08:44;;;;;;;7.07;3.40;;;15.30;60.30;;;;;;5003232;28;20026;-65
2020/12/03 08:11:48;;;;;;;5.93;2.85;;;15.30;60.70;;;;;;5004454;28;20022;-66
2020/12/03 08:14:55;;;;;;;6.40;3.30;;;15.40;60.70;;;;;;5004620;28;20018;-66
2020/12/03 08:17:20;;;;;;;7.43;3.20;;;15.40;60.90;;;;;;4998257;28;20049;-65
2020/12/03 08:20:07;;;;;;;7.50;3.00;;;15.50;60.20;;;;;;5004385;28;20410;-65
2020/12/03 08:22:40;;;;;;;6.85;3.35;;;15.40;59.70;;;;;;5003867;28;20057;-65
2020/12/03 08:25:11;;;;;;;6.05;3.13;;;15.40;59.60;;;;;;5004768;28;20025;-65
2020/12/03 08:27:37;;;;;;;7.50;3.40;;;15.40;60.20;;;;;;5004686;28;20061;-65
2020/12/03 08:30:04;;;;;;;6.10;2.97;;;15.50;59.90;;;;;;5004532;28;20037;-65
2020/12/03 08:32:53;;;;;;;6.93;3.38;;;15.50;59.30;;;;;;5004168;28;20033;-65
2020/12/03 08:35:18;;;;;;;6.55;3.17;;;15.50;59.80;;;;;;5003135;28;20041;-65
2020/12/03 08:37:44;;;;;;;6.57;3.05;;;15.40;60.10;;;;;;5004293;28;20106;-64
2020/12/03 08:40:09;;;;;;;6.78;3.25;;;15.40;59.60;;;;;;4986745;28;20026;-64
2020/12/03 08:42:35;;;;;;;7.55;3.20;;;15.40;59.40;;;;;;5003887;28;20057;-64
2020/12/03 08:45:02;;;;;;;7.55;3.67;;;15.50;59.30;;;;;;4987091;28;20077;-64
2020/12/03 08:47:37;;;;;;;8.50;3.60;;;15.40;59.00;;;;;;4986398;28;20491;-65
2020/12/03 08:50:12;;;;;;;5.90;2.90;;;15.40;59.30;;;;;;5008385;28;20034;-65
2020/12/03 08:52:37;;;;;;;7.22;3.50;;;15.50;59.20;;;;;;5007630;28;20040;-65
2020/12/03 08:55:05;;;;;;;7.28;3.20;;;15.40;59.40;;;;;;5008272;28;20034;-64
2020/12/03 08:57:35;;;;;;;8.52;4.05;;;15.40;59.70;;;;;;5008149;28;20076;-65
2020/12/03 09:00:05;;;;;;;5.65;3.05;;;15.30;58.20;;;;;;4989997;28;20530;-65
2020/12/03 09:02:31;;;;;;;6.30;3.30;;;15.30;58.90;;;;;;5007355;28;20022;-65
2020/12/03 09:04:59;;;;;;;6.38;3.42;;;15.40;59.30;;;;;;5007980;28;20022;-65
2020/12/03 09:07:28;;;;;;;5.35;3.10;;;15.30;59.10;;;;;;4990113;28;20026;-65
2020/12/03 09:09:55;;;;;;;5.05;2.80;;;15.30;59.10;;;;;;5007799;28;20423;-65
2020/12/03 09:12:28;;;;;;;7.30;3.45;;;15.30;58.90;;;;;;4989810;28;20040;-65
2020/12/03 09:14:56;;;;;;;5.65;3.10;;;15.30;58.70;;;;;;4988873;28;20339;-65
2020/12/03 09:17:25;;;;;;;7.20;3.40;;;15.30;58.90;;;;;;5006881;28;20168;-65
2020/12/03 09:19:53;;;;;;;6.43;3.22;;;15.30;58.10;;;;;;5007469;28;20056;-65
2020/12/03 09:22:21;;;;;;;6.63;3.30;;;15.30;58.90;;;;;;4988996;28;20030;-64
2020/12/03 09:24:50;;;;;;;5.45;2.83;;;15.30;59.00;;;;;;5007560;28;20034;-65
2020/12/03 09:27:16;;;;;;;6.05;3.15;;;15.30;59.50;;;;;;5007523;28;20054;-64
2020/12/03 09:29:52;;;;;;;6.63;3.33;;;15.30;59.30;;;;;;5007519;28;20026;-64
2020/12/03 09:32:22;;;;;;;6.35;3.10;;;15.30;59.00;;;;;;5007178;28;20491;-64
2020/12/03 09:34:50;;;;;;;6.07;3.25;;;15.30;57.50;;;;;;5007537;28;20041;-65
2020/12/03 09:37:16;;;;;;;6.50;3.15;;;15.30;58.80;;;;;;5007360;28;20041;-67
2020/12/03 09:39:42;;;;;;;6.60;3.60;;;15.30;58.10;;;;;;4989219;28;20406;-64
2020/12/03 09:42:14;;;;;;;5.60;3.00;;;15.20;58.50;;;;;;4989073;28;20084;-67
2020/12/03 09:44:42;;;;;;;5.20;3.08;;;15.30;59.10;;;;;;4989472;28;20030;-66
2020/12/03 09:47:14;;;;;;;6.63;3.17;;;15.30;59.10;;;;;;4989031;28;20072;-65
2020/12/03 09:49:44;;;;;;;6.47;3.13;;;15.30;59.10;;;;;;5007198;28;20025;-65
2020/12/03 09:52:11;;;;;;;6.28;3.58;;;15.30;58.70;;;;;;4988549;28;20072;-65
2020/12/03 09:54:40;;;;;;;6.07;3.22;;;15.30;59.00;;;;;;4985988;28;20034;-65
2020/12/03 09:57:09;;;;;;;6.72;3.75;;;15.20;58.00;;;;;;4994690;28;20045;-65
2020/12/03 09:59:37;;;;;;;6.22;3.40;;;15.10;58.80;;;;;;4986246;28;20041;-65
2020/12/03 10:02:28;;;;;;;6.93;4.28;;;15.10;58.60;;;;;;4987055;28;20030;-65
2020/12/03 10:05:11;;;;;;;5.85;3.30;;;15.00;57.70;;;;;;4987402;28;20030;-65
2020/12/03 10:08:14;;;;;;;5.95;3.20;;;15.00;58.60;;;;;;4987329;28;20061;-65
2020/12/03 10:10:46;;;;;;;6.97;3.58;;;15.00;58.20;;;;;;4969076;28;20540;-65
2020/12/03 10:13:37;;;;;;;6.80;4.00;;;15.00;58.10;;;;;;4987223;28;20046;-65
2020/12/03 10:16:07;;;;;;;6.93;4.10;;;15.00;57.60;;;;;;4988823;28;20125;-66
2020/12/03 10:18:55;;;;;;;6.68;3.55;;;14.90;56.30;;;;;;4988884;28;20026;-65
2020/12/03 10:21:26;;;;;;;6.82;4.05;;;15.00;58.60;;;;;;4988039;28;20025;-66
2020/12/03 10:24:15;;;;;;;11.07;5.28;;;15.10;57.90;;;;;;4986711;28;20022;-65
2020/12/03 10:27:11;;;;;;;9.52;5.13;;;15.00;57.30;;;;;;4982569;28;20053;-65
2020/12/03 10:29:45;;;;;;;8.55;4.22;;;15.00;56.10;;;;;;5001683;28;20025;-65
2020/12/03 10:32:16;;;;;;;7.80;4.03;;;14.90;56.70;;;;;;5004518;28;20502;-65
2020/12/03 10:34:44;;;;;;;12.20;4.22;;;15.00;57.40;;;;;;5015755;28;20476;-65
2020/12/03 10:37:19;;;;;;;13.30;4.30;;;15.10;57.80;;;;;;5009735;28;20037;-67
2020/12/03 10:40:14;;;;;;;9.85;4.78;;;15.10;57.30;;;;;;5005688;28;20026;-65
2020/12/03 10:42:45;;;;;;;15.88;4.45;;;15.00;56.60;;;;;;4993993;28;20089;-65
2020/12/03 10:45:17;;;;;;;11.38;4.20;;;15.10;57.60;;;;;;4980582;28;20021;-66
2020/12/03 10:47:48;;;;;;;15.05;4.47;;;15.20;58.30;;;;;;4991996;28;20026;-67
2020/12/03 10:50:15;;;;;;;10.05;3.85;;;15.30;58.40;;;;;;4978039;28;20393;-67
2020/12/03 10:52:44;;;;;;;11.63;4.13;;;15.30;58.40;;;;;;5000962;28;20034;-64
2020/12/03 10:55:11;;;;;;;11.10;4.47;;;15.20;56.10;;;;;;5002249;28;20472;-64
2020/12/03 10:57:41;;;;;;;13.20;5.18;;;15.20;55.70;;;;;;4986622;28;20030;-64
2020/12/03 11:00:09;;;;;;;15.95;8.77;;;15.30;57.40;;;;;;5022241;28;20430;-64
2020/12/03 11:02:42;;;;;;;16.27;6.75;;;15.30;55.80;;;;;;5006884;28;20030;-64
2020/12/03 11:05:09;;;;;;;10.73;4.82;;;15.30;57.00;;;;;;5007343;28;20038;-64
2020/12/03 11:07:37;;;;;;;10.27;4.75;;;15.40;56.60;;;;;;5025143;28;20386;-64
2020/12/03 11:10:03;;;;;;;10.70;4.75;;;15.40;57.10;;;;;;5024912;28;20490;-64
2020/12/03 11:12:30;;;;;;;10.23;4.88;;;15.50;56.70;;;;;;5024541;28;20087;-64
2020/12/03 11:15:01;;;;;;;10.13;3.92;;;15.50;57.30;;;;;;5025214;28;20036;-64
2020/12/03 11:17:26;;;;;;;8.70;3.70;;;15.40;56.10;;;;;;5024975;28;20029;-64
2020/12/03 11:19:59;;;;;;;7.85;4.20;;;15.50;57.10;;;;;;5024982;28;20030;-63
2020/12/03 11:22:37;;;;;;;7.15;4.00;;;15.40;57.00;;;;;;5024854;28;20029;-63
2020/12/03 11:25:05;;;;;;;8.68;4.13;;;15.50;57.50;;;;;;5025108;28;20478;-64
2020/12/03 11:27:31;;;;;;;7.20;3.67;;;15.50;57.40;;;;;;5024684;28;20037;-64
2020/12/03 11:29:57;;;;;;;7.90;3.78;;;15.60;57.10;;;;;;5024660;28;20034;-63
2020/12/03 11:32:24;;;;;;;6.55;3.58;;;15.70;57.40;;;;;;5024493;28;20060;-64
2020/12/03 11:34:49;;;;;;;6.30;3.42;;;15.60;56.80;;;;;;5024543;28;20037;-64
2020/12/03 11:37:22;;;;;;;10.48;3.28;;;15.50;57.20;;;;;;5024687;28;20094;-64
2020/12/03 11:39:48;;;;;;;7.00;3.53;;;15.50;57.50;;;;;;5024591;28;20401;-64
2020/12/03 11:42:25;;;;;;;8.77;4.05;;;15.50;57.30;;;;;;5006460;28;20026;-64
2020/12/03 11:48:28;;;;;;;6.63;3.47;;;15.60;57.20;;;;;;5024489;28;20494;-63
2020/12/03 11:50:20;;;;;;;6.78;3.38;;;15.50;56.90;;;;;;5002932;28;20375;-64
2020/12/03 11:52:46;;;;;;;6.95;3.42;;;15.50;57.20;;;;;;5024284;28;20021;-64
2020/12/03 11:55:25;;;;;;;6.53;3.63;;;15.50;56.20;;;;;;5024438;28;20036;-64
2020/12/03 11:57:51;;;;;;;6.88;3.60;;;15.40;57.30;;;;;;5024313;28;20029;-64
2020/12/03 12:00:21;;;;;;;6.65;3.30;;;15.40;56.80;;;;;;5006065;28;20201;-63
2020/12/03 12:02:53;;;;;;;6.88;3.92;;;15.40;56.70;;;;;;5023561;28;20116;-63
2020/12/03 12:08:03;;;;;;;6.45;3.40;;;15.30;55.80;;;;;;5024584;28;20033;-64
2020/12/03 12:10:36;;;;;;;6.45;3.60;;;15.20;56.90;;;;;;5024402;28;20029;-63
2020/12/03 12:13:02;;;;;;;7.40;3.75;;;15.20;57.00;;;;;;5006307;28;20048;-64
2020/12/03 12:15:27;;;;;;;6.63;3.75;;;15.20;57.00;;;;;;5024221;28;20033;-64
2020/12/03 12:17:53;;;;;;;6.63;3.50;;;15.20;56.30;;;;;;5023905;28;20483;-64
2020/12/03 12:20:18;;;;;;;7.57;4.03;;;15.10;56.40;;;;;;5024081;28;20034;-63
2020/12/03 12:22:44;;;;;;;6.50;3.47;;;15.10;56.20;;;;;;5004984;28;20236;-63
2020/12/03 12:25:10;;;;;;;7.30;3.47;;;15.10;57.00;;;;;;5024072;28;20454;-64
2020/12/03 12:27:35;;;;;;;7.03;3.50;;;15.10;56.80;;;;;;5023739;28;20053;-64
2020/12/03 12:30:02;;;;;;;6.85;3.88;;;15.10;56.10;;;;;;5006199;28;20034;-64
2020/12/03 12:32:27;;;;;;;10.07;3.85;;;15.10;56.70;;;;;;5021936;28;20060;-64
2020/12/03 12:34:53;;;;;;;9.18;3.92;;;15.10;56.90;;;;;;4999823;28;20514;-64
2020/12/03 12:37:18;;;;;;;7.80;4.10;;;15.20;56.60;;;;;;4995570;28;20065;-65
2020/12/03 12:39:44;;;;;;;10.77;4.10;;;15.10;55.80;;;;;;4998636;28;20435;-64
2020/12/03 12:42:10;;;;;;;10.52;3.83;;;15.10;56.20;;;;;;4967231;28;20050;-64
2020/12/03 12:44:36;;;;;;;8.27;3.40;;;15.10;56.20;;;;;;4995518;28;20029;-64
2020/12/03 12:47:04;;;;;;;16.15;4.45;;;15.20;56.60;;;;;;4977417;28;20018;-64
2020/12/03 12:49:30;;;;;;;9.00;3.88;;;15.20;55.50;;;;;;5003099;28;20065;-64
2020/12/03 12:51:56;;;;;;;9.25;3.72;;;15.20;57.10;;;;;;5055201;23;20455;-61
2020/12/03 12:54:23;;;;;;;9.50;4.25;;;15.30;56.50;;;;;;5029889;28;20104;-62
2020/12/03 12:56:50;;;;;;;11.70;4.25;;;15.30;56.70;;;;;;5030056;28;20104;-63
2020/12/03 12:59:16;;;;;;;8.93;3.80;;;15.30;56.50;;;;;;5022654;28;20041;-60
2020/12/03 13:01:45;;;;;;;18.67;4.30;;;15.40;56.20;;;;;;5012557;28;20022;-61
2020/12/03 13:04:15;;;;;;;52.58;6.28;;;15.50;56.40;;;;;;5024605;28;20041;-64
2020/12/03 13:06:41;;;;;;;21.92;5.53;;;15.50;56.70;;;;;;5010032;28;20023;-60
2020/12/03 13:09:08;;;;;;;24.63;6.00;;;16.00;54.80;;;;;;5009728;28;20037;-65
2020/12/03 13:11:34;;;;;;;17.40;6.30;;;16.10;53.70;;;;;;5009009;28;20411;-64
2020/12/03 13:14:00;;;;;;;13.50;5.63;;;16.30;53.10;;;;;;5010273;28;20026;-65
2020/12/03 13:16:26;;;;;;;11.63;4.35;;;16.30;52.40;;;;;;5010224;28;20033;-64
2020/12/03 13:18:51;;;;;;;15.93;4.30;;;16.30;52.80;;;;;;5010446;28;20372;-64
2020/12/03 13:21:17;;;;;;;9.73;4.15;;;16.40;53.00;;;;;;5014260;28;20414;-58
2020/12/03 13:23:44;;;;;;;13.88;4.00;;;16.40;53.50;;;;;;5017027;28;20018;-58
2020/12/03 13:26:13;;;;;;;18.48;4.22;;;16.40;53.20;;;;;;5000314;28;20669;-60
2020/12/03 13:28:39;;;;;;;15.18;4.05;;;16.40;54.20;;;;;;4991127;28;20026;-61